sensor_id;sensor_type;location;lat;lon;timestamp;P1;durP1;ratioP1;P2;durP2;ratioP2
62258;SDS011;48241;48.824;10.102;2022-12-29T05:50:12;2.97;;;0.93;;
62258;SDS011;48241;48.824;10.102;2022-12-29T05:52:38;2.25;;;1.10;;
62258;SDS011;48241;48.824;10.102;2022-12-29T05:55:04;1.10;;;0.73;;
62258;SDS011;48241;48.824;10.102;2022-12-29T05:57:30;1.30;;;0.88;;
62258;SDS011;48241;48.824;10.102;2022-12-29T05:59:55;2.50;;;0.95;;
62258;SDS011;48241;48.824;10.102;2022-12-29T06:02:21;1.48;;;1.35;;
62258;SDS011;48241;48.824;10.102;2022-12-29T06:04:46;1.85;;;0.95;;
62258;SDS011;48241;48.824;10.102;2022-12-29T06:07:12;1.77;;;0.98;;
62258;SDS011;48241;48.824;10.102;2022-12-29T06:09:37;1.65;;;1.10;;
62258;SDS011;48241;48.824;10.102;2022-12-29T06:12:03;0.73;;;0.68;;
62258;SDS011;48241;48.824;10.102;2022-12-29T06:14:29;2.00;;;0.90;;
62258;SDS011;48241;48.824;10.102;2022-12-29T06:16:54;3.03;;;1.10;;
62258;SDS011;48241;48.824;10.102;2022-12-29T06:19:20;2.60;;;1.05;;
62258;SDS011;48241;48.824;10.102;2022-12-29T06:21:46;1.30;;;1.00;;
62258;SDS011;48241;48.824;10.102;2022-12-29T06:24:11;2.83;;;1.35;;
62258;SDS011;48241;48.824;10.102;2022-12-29T06:26:37;3.38;;;0.88;;
62258;SDS011;48241;48.824;10.102;2022-12-29T06:29:02;1.58;;;0.88;;
62258;SDS011;48241;48.824;10.102;2022-12-29T06:31:28;3.17;;;1.00;;
62258;SDS011;48241;48.824;10.102;2022-12-29T06:33:54;2.95;;;1.00;;
62258;SDS011;48241;48.824;10.102;2022-12-29T06:36:19;2.42;;;0.98;;
62258;SDS011;48241;48.824;10.102;2022-12-29T06:38:45;2.17;;;1.10;;
62258;SDS011;48241;48.824;10.102;2022-12-29T06:41:10;1.15;;;0.90;;
62258;SDS011;48241;48.824;10.102;2022-12-29T06:43:36;2.80;;;1.40;;
62258;SDS011;48241;48.824;10.102;2022-12-29T06:46:03;2.33;;;1.00;;
62258;SDS011;48241;48.824;10.102;2022-12-29T06:48:30;1.70;;;1.13;;
62258;SDS011;48241;48.824;10.102;2022-12-29T06:50:55;2.30;;;1.02;;
62258;SDS011;48241;48.824;10.102;2022-12-29T06:53:21;2.33;;;1.30;;
62258;SDS011;48241;48.824;10.102;2022-12-29T06:55:46;3.58;;;1.20;;
62258;SDS011;48241;48.824;10.102;2022-12-29T06:58:12;2.13;;;1.15;;
62258;SDS011;48241;48.824;10.102;2022-12-29T07:00:37;3.50;;;1.48;;
62258;SDS011;48241;48.824;10.102;2022-12-29T07:03:03;3.35;;;1.35;;
62258;SDS011;48241;48.824;10.102;2022-12-29T07:05:29;2.38;;;1.30;;
62258;SDS011;48241;48.824;10.102;2022-12-29T07:07:56;1.80;;;1.27;;
62258;SDS011;48241;48.824;10.102;2022-12-29T07:10:22;3.20;;;1.30;;
62258;SDS011;48241;48.824;10.102;2022-12-29T07:12:48;2.10;;;1.20;;
62258;SDS011;48241;48.824;10.102;2022-12-29T07:15:13;0.43;;;0.43;;
62258;SDS011;48241;48.824;10.102;2022-12-29T07:17:39;1.63;;;0.90;;
62258;SDS011;48241;48.824;10.102;2022-12-29T07:20:05;2.88;;;1.10;;
62258;SDS011;48241;48.824;10.102;2022-12-29T07:22:31;3.28;;;1.05;;
62258;SDS011;48241;48.824;10.102;2022-12-29T07:24:57;1.95;;;1.20;;
62258;SDS011;48241;48.824;10.102;2022-12-29T07:27:22;2.05;;;1.25;;
62258;SDS011;48241;48.824;10.102;2022-12-29T07:29:48;2.13;;;1.45;;
62258;SDS011;48241;48.824;10.102;2022-12-29T07:32:14;1.23;;;0.95;;
62258;SDS011;48241;48.824;10.102;2022-12-29T07:34:39;1.95;;;1.10;;
62258;SDS011;48241;48.824;10.102;2022-12-29T07:37:05;2.50;;;1.08;;
62258;SDS011;48241;48.824;10.102;2022-12-29T07:39:31;2.08;;;0.98;;
62258;SDS011;48241;48.824;10.102;2022-12-29T07:41:56;2.13;;;1.00;;
62258;SDS011;48241;48.824;10.102;2022-12-29T07:44:22;2.92;;;1.38;;
62258;SDS011;48241;48.824;10.102;2022-12-29T07:46:47;3.80;;;1.10;;
62258;SDS011;48241;48.824;10.102;2022-12-29T07:49:13;2.72;;;1.30;;
62258;SDS011;48241;48.824;10.102;2022-12-29T07:51:38;1.92;;;1.15;;
62258;SDS011;48241;48.824;10.102;2022-12-29T07:54:04;2.13;;;1.13;;
62258;SDS011;48241;48.824;10.102;2022-12-29T07:56:29;2.28;;;1.30;;
62258;SDS011;48241;48.824;10.102;2022-12-29T07:58:55;0.90;;;0.73;;
62258;SDS011;48241;48.824;10.102;2022-12-29T08:01:21;3.45;;;1.30;;
62258;SDS011;48241;48.824;10.102;2022-12-29T08:03:48;1.70;;;0.93;;
62258;SDS011;48241;48.824;10.102;2022-12-29T08:06:14;1.73;;;1.05;;
62258;SDS011;48241;48.824;10.102;2022-12-29T08:08:39;2.70;;;1.45;;
62258;SDS011;48241;48.824;10.102;2022-12-29T08:11:05;2.05;;;0.98;;
62258;SDS011;48241;48.824;10.102;2022-12-29T08:13:30;3.22;;;1.00;;
62258;SDS011;48241;48.824;10.102;2022-12-29T08:15:57;2.78;;;1.33;;
62258;SDS011;48241;48.824;10.102;2022-12-29T08:18:23;2.05;;;1.20;;
62258;SDS011;48241;48.824;10.102;2022-12-29T08:20:49;2.22;;;1.00;;
62258;SDS011;48241;48.824;10.102;2022-12-29T08:23:14;3.13;;;0.63;;
62258;SDS011;48241;48.824;10.102;2022-12-29T08:25:40;2.05;;;1.25;;
62258;SDS011;48241;48.824;10.102;2022-12-29T08:28:06;4.28;;;1.02;;
62258;SDS011;48241;48.824;10.102;2022-12-29T08:30:31;2.13;;;1.05;;
62258;SDS011;48241;48.824;10.102;2022-12-29T08:32:57;2.88;;;1.30;;
62258;SDS011;48241;48.824;10.102;2022-12-29T08:35:22;2.95;;;1.20;;
62258;SDS011;48241;48.824;10.102;2022-12-29T08:37:48;1.13;;;0.80;;
62258;SDS011;48241;48.824;10.102;2022-12-29T08:40:14;1.70;;;1.00;;
62258;SDS011;48241;48.824;10.102;2022-12-29T08:42:39;2.30;;;1.50;;
62258;SDS011;48241;48.824;10.102;2022-12-29T08:45:05;3.20;;;1.13;;
62258;SDS011;48241;48.824;10.102;2022-12-29T08:47:31;1.15;;;0.88;;
62258;SDS011;48241;48.824;10.102;2022-12-29T08:49:57;3.90;;;1.60;;
62258;SDS011;48241;48.824;10.102;2022-12-29T08:52:22;1.63;;;1.00;;
62258;SDS011;48241;48.824;10.102;2022-12-29T08:54:48;4.20;;;1.52;;
62258;SDS011;48241;48.824;10.102;2022-12-29T08:57:13;3.25;;;1.80;;
62258;SDS011;48241;48.824;10.102;2022-12-29T08:59:39;3.33;;;1.40;;
62258;SDS011;48241;48.824;10.102;2022-12-29T09:02:05;3.88;;;1.50;;
62258;SDS011;48241;48.824;10.102;2022-12-29T09:04:30;2.08;;;1.05;;
62258;SDS011;48241;48.824;10.102;2022-12-29T09:06:56;4.57;;;1.08;;
62258;SDS011;48241;48.824;10.102;2022-12-29T09:09:22;2.88;;;1.30;;
62258;SDS011;48241;48.824;10.102;2022-12-29T09:11:47;1.83;;;1.50;;
62258;SDS011;48241;48.824;10.102;2022-12-29T09:14:13;1.92;;;1.05;;
62258;SDS011;48241;48.824;10.102;2022-12-29T09:16:39;3.35;;;1.27;;
62258;SDS011;48241;48.824;10.102;2022-12-29T09:19:24;2.63;;;1.00;;
62258;SDS011;48241;48.824;10.102;2022-12-29T09:21:49;3.80;;;1.25;;
62258;SDS011;48241;48.824;10.102;2022-12-29T09:24:15;2.88;;;1.15;;
62258;SDS011;48241;48.824;10.102;2022-12-29T09:26:40;4.00;;;1.60;;
62258;SDS011;48241;48.824;10.102;2022-12-29T09:29:06;2.45;;;1.50;;
62258;SDS011;48241;48.824;10.102;2022-12-29T09:31:31;1.10;;;1.00;;
62258;SDS011;48241;48.824;10.102;2022-12-29T09:33:57;4.03;;;1.65;;
62258;SDS011;48241;48.824;10.102;2022-12-29T09:36:22;4.40;;;1.95;;
62258;SDS011;48241;48.824;10.102;2022-12-29T09:38:48;3.28;;;1.75;;
62258;SDS011;48241;48.824;10.102;2022-12-29T09:41:21;3.63;;;1.63;;
62258;SDS011;48241;48.824;10.102;2022-12-29T09:46:45;3.17;;;1.40;;
62258;SDS011;48241;48.824;10.102;2022-12-29T09:49:29;5.22;;;1.90;;
62258;SDS011;48241;48.824;10.102;2022-12-29T09:52:15;3.47;;;1.88;;
62258;SDS011;48241;48.824;10.102;2022-12-29T10:00:33;2.53;;;1.60;;
62258;SDS011;48241;48.824;10.102;2022-12-29T10:03:47;2.75;;;1.60;;
62258;SDS011;48241;48.824;10.102;2022-12-29T10:06:24;1.73;;;1.40;;
62258;SDS011;48241;48.824;10.102;2022-12-29T10:14:15;4.85;;;1.58;;
62258;SDS011;48241;48.824;10.102;2022-12-29T10:17:02;3.05;;;1.42;;
62258;SDS011;48241;48.824;10.102;2022-12-29T10:20:00;2.60;;;1.50;;
62258;SDS011;48241;48.824;10.102;2022-12-29T10:25:39;2.22;;;1.40;;
62258;SDS011;48241;48.824;10.102;2022-12-29T10:30:47;3.17;;;1.35;;
62258;SDS011;48241;48.824;10.102;2022-12-29T10:33:48;2.33;;;1.60;;
62258;SDS011;48241;48.824;10.102;2022-12-29T10:36:12;2.70;;;1.58;;
62258;SDS011;48241;48.824;10.102;2022-12-29T10:41:39;3.03;;;1.40;;
62258;SDS011;48241;48.824;10.102;2022-12-29T10:44:13;1.85;;;1.48;;
62258;SDS011;48241;48.824;10.102;2022-12-29T10:46:55;5.78;;;1.60;;
62258;SDS011;48241;48.824;10.102;2022-12-29T10:49:28;1.08;;;0.98;;
62258;SDS011;48241;48.824;10.102;2022-12-29T10:51:58;2.83;;;1.60;;
62258;SDS011;48241;48.824;10.102;2022-12-29T10:54:42;3.85;;;1.60;;
62258;SDS011;48241;48.824;10.102;2022-12-29T11:00:13;3.35;;;1.58;;
62258;SDS011;48241;48.824;10.102;2022-12-29T11:07:59;4.05;;;1.60;;
62258;SDS011;48241;48.824;10.102;2022-12-29T11:10:36;3.85;;;1.40;;
62258;SDS011;48241;48.824;10.102;2022-12-29T11:13:10;4.30;;;1.80;;
62258;SDS011;48241;48.824;10.102;2022-12-29T11:15:43;2.53;;;1.20;;
62258;SDS011;48241;48.824;10.102;2022-12-29T11:20:58;3.88;;;1.58;;
62258;SDS011;48241;48.824;10.102;2022-12-29T11:23:30;2.80;;;1.38;;
62258;SDS011;48241;48.824;10.102;2022-12-29T11:28:35;4.07;;;1.40;;
62258;SDS011;48241;48.824;10.102;2022-12-29T11:31:03;2.88;;;1.60;;
62258;SDS011;48241;48.824;10.102;2022-12-29T11:33:31;2.78;;;1.52;;
62258;SDS011;48241;48.824;10.102;2022-12-29T11:36:08;4.25;;;1.50;;
62258;SDS011;48241;48.824;10.102;2022-12-29T11:38:42;3.05;;;1.60;;
62258;SDS011;48241;48.824;10.102;2022-12-29T11:41:13;3.42;;;1.25;;
62258;SDS011;48241;48.824;10.102;2022-12-29T11:46:14;4.57;;;1.60;;
62258;SDS011;48241;48.824;10.102;2022-12-29T11:48:48;2.80;;;1.60;;
62258;SDS011;48241;48.824;10.102;2022-12-29T11:51:25;3.10;;;1.30;;
62258;SDS011;48241;48.824;10.102;2022-12-29T11:54:12;3.80;;;1.40;;
62258;SDS011;48241;48.824;10.102;2022-12-29T11:59:39;3.05;;;1.33;;
62258;SDS011;48241;48.824;10.102;2022-12-29T17:54:21;1.65;;;0.60;;
62258;SDS011;48241;48.824;10.102;2022-12-29T17:56:48;0.98;;;0.70;;
62258;SDS011;48241;48.824;10.102;2022-12-29T17:59:14;2.35;;;0.82;;
62258;SDS011;48241;48.824;10.102;2022-12-29T18:01:41;1.08;;;0.70;;
62258;SDS011;48241;48.824;10.102;2022-12-29T18:04:11;2.15;;;0.90;;
62258;SDS011;48241;48.824;10.102;2022-12-29T18:06:39;1.00;;;0.90;;
62258;SDS011;48241;48.824;10.102;2022-12-29T18:09:05;1.98;;;0.88;;
62258;SDS011;48241;48.824;10.102;2022-12-29T18:11:35;1.73;;;0.70;;
62258;SDS011;48241;48.824;10.102;2022-12-29T18:14:15;1.45;;;0.90;;
62258;SDS011;48241;48.824;10.102;2022-12-29T18:16:41;1.52;;;0.95;;
62258;SDS011;48241;48.824;10.102;2022-12-29T18:19:07;2.60;;;1.00;;
62258;SDS011;48241;48.824;10.102;2022-12-29T18:21:35;1.85;;;1.00;;
62258;SDS011;48241;48.824;10.102;2022-12-29T18:24:03;3.17;;;0.88;;
62258;SDS011;48241;48.824;10.102;2022-12-29T18:26:30;1.20;;;0.80;;
62258;SDS011;48241;48.824;10.102;2022-12-29T18:28:57;2.08;;;0.80;;
62258;SDS011;48241;48.824;10.102;2022-12-29T18:31:24;1.77;;;0.93;;
62258;SDS011;48241;48.824;10.102;2022-12-29T18:33:51;1.05;;;0.77;;
62258;SDS011;48241;48.824;10.102;2022-12-29T18:36:18;1.00;;;0.70;;
62258;SDS011;48241;48.824;10.102;2022-12-29T18:38:45;1.52;;;0.85;;
62258;SDS011;48241;48.824;10.102;2022-12-29T18:41:14;1.45;;;0.88;;
62258;SDS011;48241;48.824;10.102;2022-12-29T18:43:43;1.63;;;0.80;;
62258;SDS011;48241;48.824;10.102;2022-12-29T18:46:09;1.20;;;0.90;;
62258;SDS011;48241;48.824;10.102;2022-12-29T18:48:34;1.13;;;0.82;;
62258;SDS011;48241;48.824;10.102;2022-12-29T18:51:00;3.35;;;1.05;;
62258;SDS011;48241;48.824;10.102;2022-12-29T18:53:26;4.20;;;1.70;;
62258;SDS011;48241;48.824;10.102;2022-12-29T18:55:51;3.67;;;1.40;;
62258;SDS011;48241;48.824;10.102;2022-12-29T18:58:18;1.52;;;1.10;;
62258;SDS011;48241;48.824;10.102;2022-12-29T19:00:44;2.72;;;1.00;;
62258;SDS011;48241;48.824;10.102;2022-12-29T19:03:13;1.65;;;1.00;;
62258;SDS011;48241;48.824;10.102;2022-12-29T19:05:41;4.07;;;1.05;;
62258;SDS011;48241;48.824;10.102;2022-12-29T19:08:08;4.00;;;0.90;;
62258;SDS011;48241;48.824;10.102;2022-12-29T19:10:35;1.00;;;0.90;;
62258;SDS011;48241;48.824;10.102;2022-12-29T19:13:02;1.85;;;1.17;;
62258;SDS011;48241;48.824;10.102;2022-12-29T19:15:31;4.10;;;2.17;;
62258;SDS011;48241;48.824;10.102;2022-12-29T19:18:05;3.58;;;1.25;;
62258;SDS011;48241;48.824;10.102;2022-12-29T19:20:35;2.58;;;1.20;;
62258;SDS011;48241;48.824;10.102;2022-12-29T19:23:04;2.83;;;1.40;;
62258;SDS011;48241;48.824;10.102;2022-12-29T19:25:32;2.33;;;1.40;;
62258;SDS011;48241;48.824;10.102;2022-12-29T19:27:58;3.00;;;1.58;;
62258;SDS011;48241;48.824;10.102;2022-12-29T19:30:24;2.70;;;1.48;;
62258;SDS011;48241;48.824;10.102;2022-12-29T19:32:52;3.15;;;1.10;;
62258;SDS011;48241;48.824;10.102;2022-12-29T19:35:19;3.40;;;1.58;;
62258;SDS011;48241;48.824;10.102;2022-12-29T19:37:46;2.50;;;1.10;;
62258;SDS011;48241;48.824;10.102;2022-12-29T19:40:13;2.38;;;1.30;;
62258;SDS011;48241;48.824;10.102;2022-12-29T19:42:40;3.58;;;1.35;;
62258;SDS011;48241;48.824;10.102;2022-12-29T19:45:06;4.05;;;2.13;;
62258;SDS011;48241;48.824;10.102;2022-12-29T19:47:32;4.70;;;2.65;;
62258;SDS011;48241;48.824;10.102;2022-12-29T19:49:58;3.85;;;1.90;;
62258;SDS011;48241;48.824;10.102;2022-12-29T19:52:25;4.38;;;1.75;;
62258;SDS011;48241;48.824;10.102;2022-12-29T19:54:51;3.45;;;1.83;;
62258;SDS011;48241;48.824;10.102;2022-12-29T19:57:18;5.63;;;3.10;;
62258;SDS011;48241;48.824;10.102;2022-12-29T19:59:45;3.35;;;1.70;;
62258;SDS011;48241;48.824;10.102;2022-12-29T20:02:18;2.53;;;1.40;;
62258;SDS011;48241;48.824;10.102;2022-12-29T20:04:45;2.17;;;1.17;;
62258;SDS011;48241;48.824;10.102;2022-12-29T20:07:11;2.40;;;1.20;;
62258;SDS011;48241;48.824;10.102;2022-12-29T20:09:37;3.35;;;0.95;;
62258;SDS011;48241;48.824;10.102;2022-12-29T20:12:02;3.70;;;1.52;;
62258;SDS011;48241;48.824;10.102;2022-12-29T20:14:28;4.53;;;1.13;;
62258;SDS011;48241;48.824;10.102;2022-12-29T20:16:54;2.10;;;1.10;;
62258;SDS011;48241;48.824;10.102;2022-12-29T20:19:19;5.57;;;1.00;;
62258;SDS011;48241;48.824;10.102;2022-12-29T20:21:45;3.00;;;1.10;;
62258;SDS011;48241;48.824;10.102;2022-12-29T20:24:11;2.60;;;1.02;;
62258;SDS011;48241;48.824;10.102;2022-12-29T20:26:37;1.55;;;1.05;;
62258;SDS011;48241;48.824;10.102;2022-12-29T20:29:02;2.53;;;1.13;;
62258;SDS011;48241;48.824;10.102;2022-12-29T20:31:29;3.38;;;0.80;;
62258;SDS011;48241;48.824;10.102;2022-12-29T20:33:59;3.35;;;1.00;;
62258;SDS011;48241;48.824;10.102;2022-12-29T20:36:27;2.83;;;0.70;;
62258;SDS011;48241;48.824;10.102;2022-12-29T20:38:55;4.07;;;1.08;;
62258;SDS011;48241;48.824;10.102;2022-12-29T20:41:23;2.50;;;0.90;;
62258;SDS011;48241;48.824;10.102;2022-12-29T20:43:49;4.10;;;0.90;;
62258;SDS011;48241;48.824;10.102;2022-12-29T20:46:17;2.53;;;0.65;;
62258;SDS011;48241;48.824;10.102;2022-12-29T20:48:42;3.10;;;0.80;;
62258;SDS011;48241;48.824;10.102;2022-12-29T20:51:08;2.67;;;0.90;;
62258;SDS011;48241;48.824;10.102;2022-12-29T20:53:35;2.17;;;0.70;;
62258;SDS011;48241;48.824;10.102;2022-12-29T20:56:03;2.75;;;0.75;;
62258;SDS011;48241;48.824;10.102;2022-12-29T20:58:30;3.30;;;1.00;;
62258;SDS011;48241;48.824;10.102;2022-12-29T21:00:59;2.20;;;0.80;;
62258;SDS011;48241;48.824;10.102;2022-12-29T21:03:26;2.92;;;0.68;;
62258;SDS011;48241;48.824;10.102;2022-12-29T21:05:52;2.25;;;0.82;;
62258;SDS011;48241;48.824;10.102;2022-12-29T21:08:19;2.97;;;0.80;;
62258;SDS011;48241;48.824;10.102;2022-12-29T21:10:48;2.88;;;0.80;;
62258;SDS011;48241;48.824;10.102;2022-12-29T21:13:14;2.25;;;0.80;;
62258;SDS011;48241;48.824;10.102;2022-12-29T21:15:41;2.28;;;0.63;;
62258;SDS011;48241;48.824;10.102;2022-12-29T21:18:08;1.95;;;0.63;;
62258;SDS011;48241;48.824;10.102;2022-12-29T21:20:33;2.45;;;0.70;;
62258;SDS011;48241;48.824;10.102;2022-12-29T21:23:00;2.05;;;0.70;;
62258;SDS011;48241;48.824;10.102;2022-12-29T21:25:30;2.85;;;0.70;;
62258;SDS011;48241;48.824;10.102;2022-12-29T21:28:03;3.60;;;0.80;;
62258;SDS011;48241;48.824;10.102;2022-12-29T21:30:29;2.95;;;0.90;;
62258;SDS011;48241;48.824;10.102;2022-12-29T21:32:55;2.03;;;0.73;;
62258;SDS011;48241;48.824;10.102;2022-12-29T21:35:20;3.28;;;0.98;;
62258;SDS011;48241;48.824;10.102;2022-12-29T21:37:46;3.20;;;1.20;;
62258;SDS011;48241;48.824;10.102;2022-12-29T21:40:11;2.38;;;0.98;;
62258;SDS011;48241;48.824;10.102;2022-12-29T21:42:37;4.07;;;0.90;;
62258;SDS011;48241;48.824;10.102;2022-12-29T21:45:03;4.53;;;0.75;;
62258;SDS011;48241;48.824;10.102;2022-12-29T21:47:47;3.30;;;0.85;;
62258;SDS011;48241;48.824;10.102;2022-12-29T21:50:31;1.17;;;0.70;;
62258;SDS011;48241;48.824;10.102;2022-12-29T21:52:57;1.83;;;0.80;;
62258;SDS011;48241;48.824;10.102;2022-12-29T21:55:22;2.03;;;0.90;;
62258;SDS011;48241;48.824;10.102;2022-12-29T21:57:48;3.78;;;0.80;;
62258;SDS011;48241;48.824;10.102;2022-12-29T22:00:32;2.15;;;0.85;;
62258;SDS011;48241;48.824;10.102;2022-12-29T22:03:16;1.88;;;0.65;;
62258;SDS011;48241;48.824;10.102;2022-12-29T22:06:00;0.68;;;0.50;;
62258;SDS011;48241;48.824;10.102;2022-12-29T22:08:44;1.88;;;0.50;;
62258;SDS011;48241;48.824;10.102;2022-12-29T22:11:28;2.08;;;0.60;;
62258;SDS011;48241;48.824;10.102;2022-12-29T22:14:12;1.65;;;0.60;;
62258;SDS011;48241;48.824;10.102;2022-12-29T22:16:37;1.35;;;0.50;;
62258;SDS011;48241;48.824;10.102;2022-12-29T22:19:03;2.03;;;0.60;;
62258;SDS011;48241;48.824;10.102;2022-12-29T22:21:29;0.45;;;0.30;;
62258;SDS011;48241;48.824;10.102;2022-12-29T22:23:54;3.42;;;0.80;;
62258;SDS011;48241;48.824;10.102;2022-12-29T22:26:20;2.15;;;0.40;;
62258;SDS011;48241;48.824;10.102;2022-12-29T22:28:45;0.60;;;0.30;;
62258;SDS011;48241;48.824;10.102;2022-12-29T22:31:22;0.80;;;0.30;;
62258;SDS011;48241;48.824;10.102;2022-12-29T22:33:57;0.68;;;0.40;;
62258;SDS011;48241;48.824;10.102;2022-12-29T22:36:24;0.47;;;0.30;;
62258;SDS011;48241;48.824;10.102;2022-12-29T22:38:51;0.47;;;0.30;;
62258;SDS011;48241;48.824;10.102;2022-12-29T22:41:17;1.70;;;0.38;;
62258;SDS011;48241;48.824;10.102;2022-12-29T22:43:43;0.38;;;0.25;;
62258;SDS011;48241;48.824;10.102;2022-12-29T22:46:08;0.90;;;0.30;;
62258;SDS011;48241;48.824;10.102;2022-12-29T22:48:34;0.93;;;0.20;;
62258;SDS011;48241;48.824;10.102;2022-12-29T22:51:00;1.05;;;0.40;;
62258;SDS011;48241;48.824;10.102;2022-12-29T22:53:26;0.30;;;0.20;;
62258;SDS011;48241;48.824;10.102;2022-12-29T22:56:08;0.82;;;0.40;;
62258;SDS011;48241;48.824;10.102;2022-12-29T22:58:38;1.65;;;0.40;;
62258;SDS011;48241;48.824;10.102;2022-12-29T23:01:04;1.65;;;0.20;;
62258;SDS011;48241;48.824;10.102;2022-12-29T23:03:30;1.38;;;0.50;;
62258;SDS011;48241;48.824;10.102;2022-12-29T23:05:58;0.60;;;0.30;;
62258;SDS011;48241;48.824;10.102;2022-12-29T23:08:25;0.65;;;0.30;;
62258;SDS011;48241;48.824;10.102;2022-12-29T23:10:52;1.00;;;0.52;;
62258;SDS011;48241;48.824;10.102;2022-12-29T23:13:17;1.42;;;0.50;;
62258;SDS011;48241;48.824;10.102;2022-12-29T23:15:43;1.02;;;0.30;;
62258;SDS011;48241;48.824;10.102;2022-12-29T23:18:09;0.30;;;0.20;;
62258;SDS011;48241;48.824;10.102;2022-12-29T23:20:34;0.75;;;0.25;;
62258;SDS011;48241;48.824;10.102;2022-12-29T23:23:00;1.00;;;0.38;;
62258;SDS011;48241;48.824;10.102;2022-12-29T23:25:25;1.67;;;0.30;;
62258;SDS011;48241;48.824;10.102;2022-12-29T23:27:51;1.45;;;0.30;;
62258;SDS011;48241;48.824;10.102;2022-12-29T23:30:16;1.75;;;0.30;;
62258;SDS011;48241;48.824;10.102;2022-12-29T23:32:42;1.08;;;0.20;;
62258;SDS011;48241;48.824;10.102;2022-12-29T23:35:07;1.15;;;0.32;;
62258;SDS011;48241;48.824;10.102;2022-12-29T23:37:33;1.17;;;0.30;;
62258;SDS011;48241;48.824;10.102;2022-12-29T23:39:59;1.02;;;0.30;;
62258;SDS011;48241;48.824;10.102;2022-12-29T23:42:24;1.15;;;0.30;;
62258;SDS011;48241;48.824;10.102;2022-12-29T23:44:50;1.40;;;0.40;;
62258;SDS011;48241;48.824;10.102;2022-12-29T23:47:16;0.17;;;0.13;;
62258;SDS011;48241;48.824;10.102;2022-12-29T23:49:41;0.75;;;0.40;;
